createdAt,value
2018-10-07T00:02:07.511Z,11.35
2018-10-07T00:04:39.570Z,11.24
2018-10-07T00:07:18.425Z,11.16
2018-10-07T00:10:02.206Z,11.11
2018-10-07T00:31:49.943Z,10.48
2018-10-07T00:34:27.887Z,10.38
2018-10-07T00:37:30.023Z,10.38
2018-10-07T00:40:11.833Z,10.28
2018-10-07T00:42:56.274Z,10.19
2018-10-07T00:45:35.312Z,10.08
2018-10-07T00:49:15.113Z,10.02
2018-10-07T00:52:26.362Z,10.01
2018-10-07T00:55:07.613Z,9.87
2018-10-07T01:01:19.623Z,9.88
2018-10-07T01:03:59.509Z,9.80
2018-10-07T01:12:49.311Z,9.66
2018-10-07T01:15:46.961Z,9.65
2018-10-07T01:21:18.507Z,9.66
2018-10-07T01:27:41.715Z,9.61
2018-10-07T01:33:54.353Z,9.49
2018-10-07T01:36:36.868Z,9.39
2018-10-07T01:39:31.799Z,9.40
2018-10-07T01:42:10.540Z,9.39
2018-10-07T01:50:27.674Z,9.42
2018-10-07T02:12:59.089Z,9.44
2018-10-07T02:26:33.468Z,9.34
2018-10-07T02:29:18.219Z,9.41
2018-10-07T02:31:54.187Z,9.33
2018-10-07T02:34:33.923Z,9.34
2018-10-07T02:37:07.868Z,9.36
2018-10-07T02:39:48.994Z,9.38
2018-10-07T02:42:23.323Z,9.40
2018-10-07T02:45:02.774Z,9.41
2018-10-07T02:47:44.571Z,9.44
2018-10-07T02:53:07.708Z,9.51
2018-10-07T02:55:40.824Z,9.46
2018-10-07T02:58:30.873Z,9.43
2018-10-07T03:01:29.309Z,9.42
2018-10-07T03:19:08.216Z,9.34
2018-10-07T03:25:41.871Z,9.33
2018-10-07T03:28:35.831Z,9.34
2018-10-07T03:31:16.860Z,9.34
2018-10-07T03:33:55.609Z,9.43
2018-10-07T03:55:08.280Z,9.43
2018-10-07T03:58:07.412Z,9.38
2018-10-07T04:14:16.242Z,9.39
2018-10-07T04:22:49.692Z,9.38
2018-10-07T04:28:15.049Z,9.50
2018-10-07T04:30:51.483Z,9.35
2018-10-07T04:34:11.046Z,9.39
2018-10-07T04:36:49.101Z,9.36
2018-10-07T04:39:33.418Z,9.40
2018-10-07T04:47:28.258Z,9.17
2018-10-07T04:50:07.476Z,9.13
2018-10-07T04:52:56.433Z,9.11
2018-10-07T04:55:34.441Z,9.01
2018-10-07T04:58:11.557Z,8.94
2018-10-07T05:03:51.401Z,8.91
2018-10-07T05:06:52.955Z,9.02
2018-10-07T05:12:22.155Z,8.89
2018-10-07T05:18:08.687Z,8.86
2018-10-07T05:20:58.528Z,8.97
2018-10-07T05:34:51.817Z,8.64
2018-10-07T05:40:25.315Z,8.64
2018-10-07T05:43:02.570Z,8.67
2018-10-07T05:48:41.052Z,8.72
2018-10-07T05:57:10.186Z,8.76
2018-10-07T06:02:32.853Z,8.90
2018-10-07T06:05:35.610Z,8.72
2018-10-07T06:13:41.876Z,8.75
2018-10-07T06:16:28.249Z,8.59
2018-10-07T06:19:07.892Z,8.76
2018-10-07T06:21:53.572Z,8.69
2018-10-07T06:27:18.973Z,8.57
2018-10-07T06:30:03.154Z,8.53
2018-10-07T06:35:37.818Z,8.66
2018-10-07T06:38:19.593Z,8.70
2018-10-07T06:44:29.213Z,8.70
2018-10-07T07:06:32.192Z,10.44
2018-10-07T07:19:59.618Z,11.34
2018-10-07T07:23:30.524Z,11.16
2018-10-07T07:26:09.483Z,11.02
2018-10-07T07:28:51.519Z,10.92
2018-10-07T07:31:34.373Z,10.95
2018-10-07T07:34:14.597Z,11.18
2018-10-07T07:36:48.765Z,11.12
2018-10-07T07:39:32.765Z,11.21
2018-10-07T07:42:26.856Z,11.24
2018-10-07T07:45:05.334Z,11.38
2018-10-07T07:47:40.369Z,11.18
2018-10-07T07:56:18.858Z,11.25
2018-10-07T08:20:01.059Z,11.79
2018-10-07T08:26:31.596Z,11.78
2018-10-07T08:29:06.758Z,11.75
2018-10-07T08:51:43.889Z,11.46
2018-10-07T08:54:26.136Z,11.83
2018-10-07T08:57:06.132Z,11.61
2018-10-07T08:59:40.362Z,11.71
2018-10-07T09:02:30.532Z,11.81
2018-10-07T09:05:19.221Z,11.96
2018-10-07T09:24:50.578Z,11.85
2018-10-07T09:30:57.155Z,11.81
2018-10-07T09:33:47.698Z,11.80
2018-10-07T09:36:32.786Z,11.93
2018-10-07T09:39:29.117Z,11.93
2018-10-07T09:42:09.412Z,12.03
2018-10-07T09:44:49.416Z,12.21
2018-10-07T09:50:18.179Z,12.26
2018-10-07T10:01:48.490Z,12.12
2018-10-07T10:56:14.422Z,12.72
2018-10-07T11:00:57.412Z,12.78
2018-10-07T11:03:45.856Z,12.99
2018-10-07T11:06:30.234Z,12.80
2018-10-07T11:09:24.748Z,13.00
2018-10-07T11:12:03.582Z,13.16
2018-10-07T11:14:56.611Z,12.93
2018-10-07T11:17:37.445Z,12.95
2018-10-07T11:21:21.448Z,13.02
2018-10-07T11:24:02.733Z,13.07
2018-10-07T11:29:18.712Z,12.98
2018-10-07T11:32:33.112Z,13.10
2018-10-07T11:35:38.830Z,13.17
2018-10-07T11:38:36.270Z,13.18
2018-10-07T11:43:44.008Z,13.22
2018-10-07T11:48:28.950Z,13.26
2018-10-07T11:51:09.366Z,13.05
2018-10-07T11:53:48.888Z,13.20
2018-10-07T11:58:58.916Z,13.17
2018-10-07T12:01:30.229Z,13.16
2018-10-07T12:04:01.460Z,13.18
2018-10-07T12:06:32.758Z,13.01
2018-10-07T12:11:47.558Z,13.14
2018-10-07T12:14:19.464Z,13.27
2018-10-07T12:16:51.550Z,13.49
2018-10-07T12:19:22.337Z,13.42
2018-10-07T12:21:53.735Z,13.39
2018-10-07T12:24:25.213Z,13.35
2018-10-07T12:26:56.337Z,13.23
2018-10-07T12:29:28.008Z,13.36
2018-10-07T12:31:59.016Z,13.42
2018-10-07T12:34:29.749Z,13.52
2018-10-07T12:37:00.324Z,13.03
2018-10-07T12:39:32.577Z,13.30
2018-10-07T12:42:03.192Z,13.48
2018-10-07T12:44:33.804Z,13.50
2018-10-07T12:47:04.663Z,13.47
2018-10-07T12:49:35.897Z,13.59
2018-10-07T12:52:06.779Z,13.69
2018-10-07T12:54:38.904Z,13.62
2018-10-07T12:57:18.592Z,13.65
2018-10-07T12:59:49.269Z,13.68
2018-10-07T13:02:20.760Z,13.82
2018-10-07T13:04:51.361Z,13.75
2018-10-07T13:10:02.115Z,13.62
2018-10-07T13:12:32.066Z,13.58
2018-10-07T13:15:02.520Z,13.76
2018-10-07T13:17:33.847Z,13.78
2018-10-07T13:20:05.991Z,13.73
2018-10-07T13:22:36.675Z,13.66
2018-10-07T13:25:06.947Z,13.82
2018-10-07T13:27:47.255Z,13.74
2018-10-07T13:30:18.573Z,13.65
2018-10-07T13:32:48.992Z,13.64
2018-10-07T13:35:21.095Z,13.72
2018-10-07T13:37:51.395Z,13.74
2018-10-07T13:40:23.139Z,13.85
2018-10-07T13:45:35.950Z,13.79
2018-10-07T13:48:07.300Z,13.98
2018-10-07T13:50:38.147Z,14.21
2018-10-07T13:55:59.559Z,14.18
2018-10-07T13:58:30.777Z,13.79
2018-10-07T14:01:02.284Z,13.79
2018-10-07T14:03:40.118Z,13.82
2018-10-07T14:06:13.482Z,14.02
2018-10-07T14:08:52.395Z,13.87
2018-10-07T14:11:24.785Z,13.80
2018-10-07T14:13:56.444Z,13.85
2018-10-07T14:16:26.658Z,13.91
2018-10-07T14:18:58.207Z,13.74
2018-10-07T14:21:28.309Z,13.65
2018-10-07T14:23:58.577Z,13.69
2018-10-07T14:26:29.947Z,13.80
2018-10-07T14:29:00.239Z,13.65
2018-10-07T14:31:30.902Z,13.79
2018-10-07T14:34:03.445Z,13.72
2018-10-07T14:36:33.937Z,13.76
2018-10-07T14:39:05.623Z,13.80
2018-10-07T14:41:36.831Z,13.81
2018-10-07T14:44:07.883Z,13.81
2018-10-07T14:46:38.766Z,13.61
2018-10-07T14:49:10.388Z,13.50
2018-10-07T14:54:24.096Z,13.52
2018-10-07T14:57:00.447Z,13.64
2018-10-07T14:59:36.039Z,13.47
2018-10-07T15:02:19.268Z,13.57
2018-10-07T15:04:53.838Z,13.59
2018-10-07T15:07:25.340Z,13.60
2018-10-07T15:09:56.171Z,13.56
2018-10-07T15:12:29.688Z,13.37
2018-10-07T15:15:03.027Z,13.51
2018-10-07T15:17:34.835Z,13.55
2018-10-07T15:20:06.702Z,13.59
2018-10-07T15:22:41.124Z,13.52
2018-10-07T15:25:12.153Z,13.57
2018-10-07T15:27:48.255Z,13.57
2018-10-07T15:30:27.132Z,13.56
2018-10-07T15:33:00.163Z,13.48
2018-10-07T15:35:31.227Z,13.41
2018-10-07T15:38:02.750Z,13.44
2018-10-07T15:40:34.796Z,13.48
2018-10-07T15:43:08.909Z,13.35
2018-10-07T15:45:41.390Z,13.36
2018-10-07T15:48:15.229Z,13.32
2018-10-07T15:50:45.399Z,13.34
2018-10-07T15:53:17.648Z,13.52
2018-10-07T15:55:49.832Z,13.51
2018-10-07T15:58:24.124Z,13.48
2018-10-07T16:00:57.091Z,13.37
2018-10-07T16:03:29.307Z,13.41
2018-10-07T16:06:01.578Z,13.49
2018-10-07T16:08:33.129Z,13.37
2018-10-07T16:11:06.848Z,13.42
2018-10-07T16:13:43.114Z,13.34
2018-10-07T16:16:17.013Z,13.21
2018-10-07T16:18:49.503Z,13.24
2018-10-07T16:21:22.335Z,13.28
2018-10-07T16:23:54.403Z,13.22
2018-10-07T16:26:29.417Z,13.30
2018-10-07T16:29:04.362Z,13.21
2018-10-07T16:34:20.168Z,13.06
2018-10-07T16:36:54.365Z,12.78
2018-10-07T16:39:28.634Z,12.81
2018-10-07T16:42:02.355Z,12.69
2018-10-07T16:44:40.066Z,12.75
2018-10-07T16:47:13.346Z,12.70
2018-10-07T16:49:45.830Z,12.70
2018-10-07T16:52:20.609Z,12.74
2018-10-07T16:54:52.383Z,12.65
2018-10-07T16:57:24.150Z,12.71
2018-10-07T16:59:56.188Z,12.69
2018-10-07T17:02:27.843Z,12.63
2018-10-07T17:04:58.607Z,12.76
2018-10-07T17:07:30.185Z,12.74
2018-10-07T17:10:08.298Z,12.74
2018-10-07T17:12:44.119Z,12.83
2018-10-07T17:18:19.917Z,12.56
2018-10-07T17:21:04.261Z,12.56
2018-10-07T17:23:52.920Z,12.42
2018-10-07T17:26:31.830Z,12.29
2018-10-07T17:29:08.747Z,12.21
2018-10-07T17:31:58.545Z,12.26
2018-10-07T17:34:42.735Z,12.36
2018-10-07T17:37:16.965Z,12.33
2018-10-07T17:40:01.240Z,12.30
2018-10-07T17:42:34.336Z,12.17
2018-10-07T17:45:08.871Z,12.22
2018-10-07T17:47:50.824Z,12.12
2018-10-07T17:50:25.995Z,12.04
2018-10-07T17:53:01.946Z,12.07
2018-10-07T17:55:54.904Z,11.95
2018-10-07T17:58:32.898Z,11.95
2018-10-07T18:01:14.615Z,12.08
2018-10-07T18:03:54.396Z,12.08
2018-10-07T18:06:26.321Z,12.05
2018-10-07T18:09:02.359Z,12.08
2018-10-07T18:11:43.664Z,11.96
2018-10-07T18:14:26.462Z,11.88
2018-10-07T18:17:46.757Z,11.79
2018-10-07T18:20:22.087Z,11.76
2018-10-07T18:23:01.745Z,11.60
2018-10-07T18:25:38.402Z,11.43
2018-10-07T18:28:27.560Z,11.48
2018-10-07T18:31:08.597Z,11.39
2018-10-07T18:33:50.600Z,11.18
2018-10-07T18:36:31.839Z,11.21
2018-10-07T18:39:14.730Z,11.24
2018-10-07T18:41:59.193Z,11.22
2018-10-07T18:44:41.257Z,11.25
2018-10-07T18:47:25.097Z,11.31
2018-10-07T18:50:15.850Z,11.18
2018-10-07T18:52:54.259Z,11.31
2018-10-07T18:55:32.061Z,11.23
2018-10-07T18:58:07.169Z,11.21
2018-10-07T19:00:39.904Z,11.41
2018-10-07T19:06:10.191Z,11.10
2018-10-07T19:08:42.483Z,10.80
2018-10-07T19:11:24.787Z,10.74
2018-10-07T19:17:08.223Z,11.00
2018-10-07T19:19:42.747Z,11.11
2018-10-07T19:22:18.971Z,11.10
2018-10-07T19:24:53.257Z,11.14
2018-10-07T19:27:26.596Z,11.24
2018-10-07T19:29:59.531Z,11.06
2018-10-07T19:32:31.834Z,11.14
2018-10-07T19:35:04.577Z,11.08
2018-10-07T19:37:40.140Z,10.96
2018-10-07T19:40:14.656Z,10.96
2018-10-07T19:42:54.896Z,11.02
2018-10-07T19:45:28.873Z,11.04
2018-10-07T19:48:08.073Z,11.10
2018-10-07T19:50:47.600Z,11.08
2018-10-07T19:53:21.966Z,11.03
2018-10-07T19:55:56.952Z,11.11
2018-10-07T19:58:31.694Z,11.20
2018-10-07T20:03:47.652Z,10.87
2018-10-07T20:06:26.350Z,10.81
2018-10-07T20:08:59.791Z,10.65
2018-10-07T20:11:34.471Z,10.57
2018-10-07T20:14:12.280Z,10.58
2018-10-07T20:16:45.305Z,10.41
2018-10-07T20:19:18.184Z,10.53
2018-10-07T20:21:52.071Z,10.56
2018-10-07T20:24:26.301Z,10.53
2018-10-07T20:27:00.102Z,10.46
2018-10-07T20:29:34.511Z,10.70
2018-10-07T20:32:08.011Z,10.76
2018-10-07T20:34:45.808Z,10.45
2018-10-07T20:37:18.411Z,10.33
2018-10-07T20:39:53.612Z,10.31
2018-10-07T20:42:28.988Z,10.30
2018-10-07T20:45:03.140Z,10.38
2018-10-07T20:47:36.758Z,10.24
2018-10-07T20:50:25.330Z,10.41
2018-10-07T20:53:00.438Z,10.47
2018-10-07T20:55:49.062Z,10.65
2018-10-07T20:58:23.900Z,10.42
2018-10-07T21:00:57.482Z,10.55
2018-10-07T21:03:30.629Z,10.66
2018-10-07T21:06:02.619Z,10.59
2018-10-07T21:08:35.061Z,10.55
2018-10-07T21:11:11.185Z,10.59
2018-10-07T21:13:48.977Z,10.72
2018-10-07T21:16:23.687Z,10.54
2018-10-07T21:18:57.172Z,10.45
2018-10-07T21:21:36.556Z,10.41
2018-10-07T21:24:08.493Z,10.60
2018-10-07T21:26:40.750Z,10.63
2018-10-07T21:29:14.541Z,10.42
2018-10-07T21:31:52.072Z,10.55
2018-10-07T21:34:34.051Z,10.58
2018-10-07T21:37:12.684Z,10.30
2018-10-07T21:39:54.390Z,10.13
2018-10-07T21:42:27.388Z,10.09
2018-10-07T21:45:04.894Z,10.13
2018-10-07T21:47:37.412Z,9.99
2018-10-07T21:50:10.243Z,9.95
2018-10-07T21:52:42.644Z,9.99
2018-10-07T21:55:15.150Z,9.85
2018-10-07T21:57:46.780Z,9.72
2018-10-07T22:00:18.814Z,9.82
2018-10-07T22:02:50.159Z,9.74
2018-10-07T22:05:21.697Z,9.69
2018-10-07T22:07:53.203Z,9.56
2018-10-07T22:10:24.920Z,9.36
2018-10-07T22:12:56.783Z,9.45
2018-10-07T22:15:27.990Z,9.75
2018-10-07T22:17:58.903Z,10.00
2018-10-07T22:20:31.547Z,9.95
2018-10-07T22:25:48.299Z,10.14
2018-10-07T22:28:20.537Z,10.12
2018-10-07T22:30:52.864Z,10.35
2018-10-07T22:33:24.820Z,10.42
2018-10-07T22:35:58.672Z,10.25
2018-10-07T22:38:31.832Z,10.21
2018-10-07T22:41:03.275Z,10.13
2018-10-07T22:43:40.265Z,9.94
2018-10-07T22:46:18.360Z,10.08
2018-10-07T22:49:37.027Z,10.04
2018-10-07T22:52:09.183Z,10.07
2018-10-07T22:54:41.251Z,10.00
2018-10-07T22:57:13.536Z,9.72
2018-10-07T22:59:45.225Z,10.05
2018-10-07T23:02:17.979Z,10.07
2018-10-07T23:04:49.800Z,10.01
2018-10-07T23:07:22.418Z,10.04
2018-10-07T23:09:55.458Z,9.76
2018-10-07T23:12:27.318Z,9.89
2018-10-07T23:14:58.205Z,9.75
2018-10-07T23:17:29.266Z,9.84
2018-10-07T23:20:01.173Z,9.86
2018-10-07T23:22:33.371Z,9.86
2018-10-07T23:25:04.226Z,10.02
2018-10-07T23:27:35.455Z,9.80
2018-10-07T23:30:08.778Z,9.74
2018-10-07T23:32:39.492Z,9.61
2018-10-07T23:35:10.511Z,9.74
2018-10-07T23:37:41.535Z,9.54
2018-10-07T23:40:12.998Z,9.50
2018-10-07T23:42:44.059Z,9.52
2018-10-07T23:45:14.076Z,9.51
2018-10-07T23:47:46.141Z,9.47
2018-10-07T23:50:16.361Z,9.47
2018-10-07T23:52:48.334Z,9.52
2018-10-07T23:55:22.880Z,9.78
2018-10-07T23:57:54.048Z,9.74
